sensor_id;sensor_type;location;lat;lon;timestamp;P1;durP1;ratioP1;P2;durP2;ratioP2
16314;SDS011;8266;52.150;4.768;2023-04-06T00:00:33;16.10;;;12.05;;
16314;SDS011;8266;52.150;4.768;2023-04-06T00:03:02;15.90;;;11.80;;
16314;SDS011;8266;52.150;4.768;2023-04-06T00:05:29;13.63;;;11.15;;
16314;SDS011;8266;52.150;4.768;2023-04-06T00:07:57;13.48;;;10.55;;
16314;SDS011;8266;52.150;4.768;2023-04-06T00:10:25;14.38;;;11.50;;
16314;SDS011;8266;52.150;4.768;2023-04-06T00:12:52;14.65;;;11.00;;
16314;SDS011;8266;52.150;4.768;2023-04-06T00:15:19;13.73;;;11.50;;
16314;SDS011;8266;52.150;4.768;2023-04-06T00:17:47;18.02;;;10.43;;
16314;SDS011;8266;52.150;4.768;2023-04-06T00:20:16;15.60;;;10.43;;
16314;SDS011;8266;52.150;4.768;2023-04-06T00:22:45;12.40;;;11.05;;
16314;SDS011;8266;52.150;4.768;2023-04-06T00:25:12;14.38;;;11.82;;
16314;SDS011;8266;52.150;4.768;2023-04-06T00:27:40;15.05;;;10.90;;
16314;SDS011;8266;52.150;4.768;2023-04-06T00:30:08;15.60;;;11.85;;
16314;SDS011;8266;52.150;4.768;2023-04-06T00:32:35;12.40;;;10.73;;
16314;SDS011;8266;52.150;4.768;2023-04-06T00:35:03;14.02;;;11.07;;
16314;SDS011;8266;52.150;4.768;2023-04-06T00:37:32;14.05;;;10.18;;
16314;SDS011;8266;52.150;4.768;2023-04-06T00:39:59;13.35;;;11.38;;
16314;SDS011;8266;52.150;4.768;2023-04-06T00:42:27;15.90;;;11.60;;
16314;SDS011;8266;52.150;4.768;2023-04-06T00:44:54;11.50;;;10.30;;
16314;SDS011;8266;52.150;4.768;2023-04-06T00:47:23;13.45;;;10.60;;
16314;SDS011;8266;52.150;4.768;2023-04-06T00:49:51;11.25;;;9.27;;
16314;SDS011;8266;52.150;4.768;2023-04-06T00:52:19;11.35;;;10.15;;
16314;SDS011;8266;52.150;4.768;2023-04-06T00:54:48;13.20;;;10.27;;
16314;SDS011;8266;52.150;4.768;2023-04-06T00:57:15;14.55;;;10.57;;
16314;SDS011;8266;52.150;4.768;2023-04-06T00:59:43;12.60;;;10.05;;
16314;SDS011;8266;52.150;4.768;2023-04-06T01:02:10;12.93;;;9.55;;
16314;SDS011;8266;52.150;4.768;2023-04-06T01:04:38;14.30;;;9.82;;
16314;SDS011;8266;52.150;4.768;2023-04-06T01:07:05;11.25;;;10.05;;
16314;SDS011;8266;52.150;4.768;2023-04-06T01:09:33;13.45;;;9.57;;
16314;SDS011;8266;52.150;4.768;2023-04-06T01:12:02;12.68;;;9.93;;
16314;SDS011;8266;52.150;4.768;2023-04-06T01:14:29;13.38;;;9.48;;
16314;SDS011;8266;52.150;4.768;2023-04-06T01:16:57;11.48;;;9.40;;
16314;SDS011;8266;52.150;4.768;2023-04-06T01:19:26;11.85;;;9.57;;
16314;SDS011;8266;52.150;4.768;2023-04-06T01:21:53;12.73;;;9.10;;
16314;SDS011;8266;52.150;4.768;2023-04-06T01:24:22;11.10;;;9.68;;
16314;SDS011;8266;52.150;4.768;2023-04-06T01:26:50;13.35;;;9.52;;
16314;SDS011;8266;52.150;4.768;2023-04-06T01:29:17;14.93;;;9.27;;
16314;SDS011;8266;52.150;4.768;2023-04-06T01:31:44;12.15;;;9.82;;
16314;SDS011;8266;52.150;4.768;2023-04-06T01:34:11;10.88;;;9.60;;
16314;SDS011;8266;52.150;4.768;2023-04-06T01:36:39;11.65;;;9.98;;
16314;SDS011;8266;52.150;4.768;2023-04-06T01:39:06;12.88;;;9.38;;
16314;SDS011;8266;52.150;4.768;2023-04-06T01:41:34;13.27;;;9.07;;
16314;SDS011;8266;52.150;4.768;2023-04-06T01:44:02;10.38;;;9.05;;
16314;SDS011;8266;52.150;4.768;2023-04-06T01:46:29;11.35;;;9.25;;
16314;SDS011;8266;52.150;4.768;2023-04-06T01:48:59;13.68;;;9.93;;
16314;SDS011;8266;52.150;4.768;2023-04-06T01:51:26;11.85;;;8.70;;
16314;SDS011;8266;52.150;4.768;2023-04-06T01:53:53;11.38;;;9.20;;
16314;SDS011;8266;52.150;4.768;2023-04-06T01:56:20;12.48;;;9.80;;
16314;SDS011;8266;52.150;4.768;2023-04-06T01:58:49;10.20;;;9.10;;
16314;SDS011;8266;52.150;4.768;2023-04-06T02:01:16;11.25;;;8.93;;
16314;SDS011;8266;52.150;4.768;2023-04-06T02:03:43;11.30;;;9.52;;
16314;SDS011;8266;52.150;4.768;2023-04-06T02:06:10;18.20;;;10.13;;
16314;SDS011;8266;52.150;4.768;2023-04-06T02:08:37;11.10;;;9.38;;
16314;SDS011;8266;52.150;4.768;2023-04-06T02:11:05;12.65;;;8.98;;
16314;SDS011;8266;52.150;4.768;2023-04-06T02:13:32;13.02;;;10.00;;
16314;SDS011;8266;52.150;4.768;2023-04-06T02:16:01;10.70;;;8.77;;
16314;SDS011;8266;52.150;4.768;2023-04-06T02:18:33;13.82;;;9.63;;
16314;SDS011;8266;52.150;4.768;2023-04-06T02:21:02;10.93;;;9.25;;
16314;SDS011;8266;52.150;4.768;2023-04-06T02:23:32;12.02;;;9.45;;
16314;SDS011;8266;52.150;4.768;2023-04-06T02:25:59;12.38;;;9.60;;
16314;SDS011;8266;52.150;4.768;2023-04-06T02:28:26;11.40;;;9.35;;
16314;SDS011;8266;52.150;4.768;2023-04-06T02:30:53;10.80;;;9.05;;
16314;SDS011;8266;52.150;4.768;2023-04-06T02:33:22;11.57;;;9.40;;
16314;SDS011;8266;52.150;4.768;2023-04-06T02:35:49;12.73;;;10.20;;
16314;SDS011;8266;52.150;4.768;2023-04-06T02:38:17;11.18;;;9.65;;
16314;SDS011;8266;52.150;4.768;2023-04-06T02:40:44;10.10;;;9.07;;
16314;SDS011;8266;52.150;4.768;2023-04-06T02:43:11;11.32;;;10.13;;
16314;SDS011;8266;52.150;4.768;2023-04-06T02:45:38;11.88;;;9.60;;
16314;SDS011;8266;52.150;4.768;2023-04-06T02:48:05;11.40;;;10.20;;
16314;SDS011;8266;52.150;4.768;2023-04-06T02:50:36;12.00;;;10.10;;
16314;SDS011;8266;52.150;4.768;2023-04-06T02:53:03;14.43;;;11.65;;
16314;SDS011;8266;52.150;4.768;2023-04-06T02:55:30;12.25;;;9.65;;
16314;SDS011;8266;52.150;4.768;2023-04-06T02:57:58;11.77;;;9.65;;
16314;SDS011;8266;52.150;4.768;2023-04-06T03:00:25;12.73;;;10.15;;
16314;SDS011;8266;52.150;4.768;2023-04-06T03:02:52;11.85;;;9.60;;
16314;SDS011;8266;52.150;4.768;2023-04-06T03:05:20;11.73;;;10.10;;
16314;SDS011;8266;52.150;4.768;2023-04-06T03:07:49;13.00;;;10.18;;
16314;SDS011;8266;52.150;4.768;2023-04-06T03:10:16;11.73;;;9.85;;
16314;SDS011;8266;52.150;4.768;2023-04-06T03:12:43;13.32;;;10.43;;
16314;SDS011;8266;52.150;4.768;2023-04-06T03:15:10;11.48;;;9.85;;
16314;SDS011;8266;52.150;4.768;2023-04-06T03:17:37;11.35;;;10.00;;
16314;SDS011;8266;52.150;4.768;2023-04-06T03:20:05;12.52;;;10.57;;
16314;SDS011;8266;52.150;4.768;2023-04-06T03:22:32;12.00;;;10.15;;
16314;SDS011;8266;52.150;4.768;2023-04-06T03:25:01;13.32;;;10.30;;
16314;SDS011;8266;52.150;4.768;2023-04-06T03:27:28;12.10;;;10.55;;
16314;SDS011;8266;52.150;4.768;2023-04-06T03:29:55;12.98;;;10.73;;
16314;SDS011;8266;52.150;4.768;2023-04-06T03:32:22;12.70;;;10.45;;
16314;SDS011;8266;52.150;4.768;2023-04-06T03:34:49;12.30;;;10.32;;
16314;SDS011;8266;52.150;4.768;2023-04-06T03:37:16;13.80;;;10.75;;
16314;SDS011;8266;52.150;4.768;2023-04-06T03:39:43;12.13;;;10.02;;
16314;SDS011;8266;52.150;4.768;2023-04-06T03:42:12;14.43;;;10.55;;
16314;SDS011;8266;52.150;4.768;2023-04-06T03:44:39;13.25;;;10.00;;
16314;SDS011;8266;52.150;4.768;2023-04-06T03:47:06;11.75;;;10.38;;
16314;SDS011;8266;52.150;4.768;2023-04-06T03:49:35;11.27;;;9.68;;
16314;SDS011;8266;52.150;4.768;2023-04-06T03:52:02;13.77;;;11.43;;
16314;SDS011;8266;52.150;4.768;2023-04-06T03:54:29;14.05;;;11.00;;
16314;SDS011;8266;52.150;4.768;2023-04-06T03:56:56;13.98;;;11.27;;
16314;SDS011;8266;52.150;4.768;2023-04-06T03:59:25;13.23;;;11.43;;
16314;SDS011;8266;52.150;4.768;2023-04-06T04:01:52;12.88;;;11.00;;
16314;SDS011;8266;52.150;4.768;2023-04-06T04:04:19;12.60;;;11.18;;
16314;SDS011;8266;52.150;4.768;2023-04-06T04:06:47;13.27;;;10.82;;
16314;SDS011;8266;52.150;4.768;2023-04-06T04:09:14;14.30;;;11.38;;
16314;SDS011;8266;52.150;4.768;2023-04-06T04:11:41;14.55;;;12.07;;
16314;SDS011;8266;52.150;4.768;2023-04-06T04:14:08;14.30;;;11.48;;
16314;SDS011;8266;52.150;4.768;2023-04-06T04:16:37;16.40;;;12.23;;
16314;SDS011;8266;52.150;4.768;2023-04-06T04:19:04;13.40;;;10.73;;
16314;SDS011;8266;52.150;4.768;2023-04-06T04:21:31;13.43;;;12.02;;
16314;SDS011;8266;52.150;4.768;2023-04-06T04:23:59;17.00;;;12.75;;
16314;SDS011;8266;52.150;4.768;2023-04-06T04:26:26;15.57;;;11.90;;
16314;SDS011;8266;52.150;4.768;2023-04-06T04:28:53;13.90;;;12.23;;
16314;SDS011;8266;52.150;4.768;2023-04-06T04:31:20;14.80;;;11.55;;
16314;SDS011;8266;52.150;4.768;2023-04-06T04:33:49;14.60;;;12.60;;
16314;SDS011;8266;52.150;4.768;2023-04-06T04:36:16;15.55;;;12.35;;
16314;SDS011;8266;52.150;4.768;2023-04-06T04:38:43;16.35;;;13.13;;
16314;SDS011;8266;52.150;4.768;2023-04-06T04:41:10;14.98;;;11.52;;
16314;SDS011;8266;52.150;4.768;2023-04-06T04:43:37;15.90;;;11.95;;
16314;SDS011;8266;52.150;4.768;2023-04-06T04:46:05;14.18;;;11.27;;
16314;SDS011;8266;52.150;4.768;2023-04-06T04:48:32;13.40;;;12.00;;
16314;SDS011;8266;52.150;4.768;2023-04-06T04:51:01;19.60;;;12.82;;
16314;SDS011;8266;52.150;4.768;2023-04-06T04:53:28;14.65;;;12.30;;
16314;SDS011;8266;52.150;4.768;2023-04-06T04:55:55;17.77;;;12.20;;
16314;SDS011;8266;52.150;4.768;2023-04-06T04:58:22;17.75;;;12.90;;
16314;SDS011;8266;52.150;4.768;2023-04-06T05:00:49;14.50;;;12.25;;
16314;SDS011;8266;52.150;4.768;2023-04-06T05:03:17;18.00;;;11.80;;
16314;SDS011;8266;52.150;4.768;2023-04-06T05:05:47;14.30;;;12.27;;
16314;SDS011;8266;52.150;4.768;2023-04-06T05:08:16;17.65;;;13.38;;
16314;SDS011;8266;52.150;4.768;2023-04-06T05:10:43;14.55;;;12.05;;
16314;SDS011;8266;52.150;4.768;2023-04-06T05:13:11;16.17;;;12.25;;
16314;SDS011;8266;52.150;4.768;2023-04-06T05:15:39;14.10;;;12.45;;
16314;SDS011;8266;52.150;4.768;2023-04-06T05:18:06;13.73;;;12.02;;
16314;SDS011;8266;52.150;4.768;2023-04-06T05:20:34;12.38;;;10.82;;
16314;SDS011;8266;52.150;4.768;2023-04-06T05:23:01;14.77;;;11.52;;
16314;SDS011;8266;52.150;4.768;2023-04-06T05:25:41;13.88;;;11.60;;
16314;SDS011;8266;52.150;4.768;2023-04-06T05:28:11;16.42;;;12.35;;
16314;SDS011;8266;52.150;4.768;2023-04-06T05:30:39;14.73;;;11.60;;
16314;SDS011;8266;52.150;4.768;2023-04-06T05:33:09;16.17;;;12.68;;
16314;SDS011;8266;52.150;4.768;2023-04-06T05:35:37;13.98;;;12.15;;
16314;SDS011;8266;52.150;4.768;2023-04-06T05:38:05;16.73;;;12.93;;
16314;SDS011;8266;52.150;4.768;2023-04-06T05:40:35;17.38;;;12.82;;
16314;SDS011;8266;52.150;4.768;2023-04-06T05:43:03;15.95;;;12.23;;
16314;SDS011;8266;52.150;4.768;2023-04-06T05:45:30;16.25;;;12.27;;
16314;SDS011;8266;52.150;4.768;2023-04-06T05:47:57;15.93;;;12.65;;
16314;SDS011;8266;52.150;4.768;2023-04-06T05:50:24;17.45;;;12.73;;
16314;SDS011;8266;52.150;4.768;2023-04-06T05:52:51;16.67;;;12.85;;
16314;SDS011;8266;52.150;4.768;2023-04-06T05:55:18;13.95;;;12.07;;
16314;SDS011;8266;52.150;4.768;2023-04-06T05:57:47;15.23;;;12.90;;
16314;SDS011;8266;52.150;4.768;2023-04-06T06:00:14;15.07;;;12.68;;
16314;SDS011;8266;52.150;4.768;2023-04-06T06:02:42;16.92;;;12.77;;
16314;SDS011;8266;52.150;4.768;2023-04-06T06:05:09;14.93;;;11.93;;
16314;SDS011;8266;52.150;4.768;2023-04-06T06:07:36;14.80;;;11.95;;
16314;SDS011;8266;52.150;4.768;2023-04-06T06:10:04;15.57;;;12.75;;
16314;SDS011;8266;52.150;4.768;2023-04-06T06:12:35;15.32;;;12.55;;
16314;SDS011;8266;52.150;4.768;2023-04-06T06:15:04;13.55;;;11.90;;
16314;SDS011;8266;52.150;4.768;2023-04-06T06:17:32;16.10;;;12.23;;
16314;SDS011;8266;52.150;4.768;2023-04-06T06:19:59;17.02;;;12.35;;
16314;SDS011;8266;52.150;4.768;2023-04-06T06:22:27;16.00;;;12.52;;
16314;SDS011;8266;52.150;4.768;2023-04-06T06:24:54;14.95;;;12.05;;
16314;SDS011;8266;52.150;4.768;2023-04-06T06:27:21;14.32;;;12.50;;
16314;SDS011;8266;52.150;4.768;2023-04-06T06:29:48;16.20;;;12.65;;
16314;SDS011;8266;52.150;4.768;2023-04-06T06:32:17;15.70;;;12.65;;
16314;SDS011;8266;52.150;4.768;2023-04-06T06:34:45;14.95;;;12.35;;
16314;SDS011;8266;52.150;4.768;2023-04-06T06:37:12;15.13;;;12.40;;
16314;SDS011;8266;52.150;4.768;2023-04-06T06:39:42;15.50;;;13.18;;
16314;SDS011;8266;52.150;4.768;2023-04-06T06:42:09;16.63;;;13.48;;
16314;SDS011;8266;52.150;4.768;2023-04-06T06:44:36;14.85;;;12.88;;
16314;SDS011;8266;52.150;4.768;2023-04-06T06:47:03;16.70;;;12.77;;
16314;SDS011;8266;52.150;4.768;2023-04-06T06:49:32;18.73;;;14.38;;
16314;SDS011;8266;52.150;4.768;2023-04-06T06:51:59;17.90;;;14.15;;
16314;SDS011;8266;52.150;4.768;2023-04-06T06:54:26;16.63;;;12.50;;
16314;SDS011;8266;52.150;4.768;2023-04-06T06:56:53;18.30;;;14.65;;
16314;SDS011;8266;52.150;4.768;2023-04-06T06:59:21;18.55;;;13.38;;
16314;SDS011;8266;52.150;4.768;2023-04-06T07:01:49;16.40;;;13.52;;
16314;SDS011;8266;52.150;4.768;2023-04-06T07:04:17;19.73;;;15.27;;
16314;SDS011;8266;52.150;4.768;2023-04-06T07:06:45;19.00;;;14.63;;
16314;SDS011;8266;52.150;4.768;2023-04-06T07:09:12;20.05;;;14.73;;
16314;SDS011;8266;52.150;4.768;2023-04-06T07:11:40;17.75;;;14.70;;
16314;SDS011;8266;52.150;4.768;2023-04-06T07:14:07;16.85;;;13.55;;
16314;SDS011;8266;52.150;4.768;2023-04-06T07:16:34;17.58;;;14.18;;
16314;SDS011;8266;52.150;4.768;2023-04-06T07:19:01;16.88;;;13.90;;
16314;SDS011;8266;52.150;4.768;2023-04-06T07:21:28;18.00;;;13.13;;
16314;SDS011;8266;52.150;4.768;2023-04-06T07:23:57;18.30;;;14.10;;
16314;SDS011;8266;52.150;4.768;2023-04-06T07:26:24;17.48;;;13.93;;
16314;SDS011;8266;52.150;4.768;2023-04-06T07:28:51;18.30;;;13.85;;
16314;SDS011;8266;52.150;4.768;2023-04-06T07:31:18;21.45;;;14.52;;
16314;SDS011;8266;52.150;4.768;2023-04-06T07:33:45;18.80;;;14.55;;
16314;SDS011;8266;52.150;4.768;2023-04-06T07:36:12;18.23;;;14.52;;
16314;SDS011;8266;52.150;4.768;2023-04-06T07:38:40;16.95;;;14.48;;
16314;SDS011;8266;52.150;4.768;2023-04-06T07:41:08;18.80;;;14.13;;
16314;SDS011;8266;52.150;4.768;2023-04-06T07:43:36;16.70;;;13.77;;
16314;SDS011;8266;52.150;4.768;2023-04-06T07:46:04;17.67;;;13.77;;
16314;SDS011;8266;52.150;4.768;2023-04-06T07:48:31;19.85;;;14.82;;
16314;SDS011;8266;52.150;4.768;2023-04-06T07:51:01;16.75;;;13.75;;
16314;SDS011;8266;52.150;4.768;2023-04-06T07:53:28;16.17;;;14.32;;
16314;SDS011;8266;52.150;4.768;2023-04-06T07:55:57;21.75;;;14.55;;
16314;SDS011;8266;52.150;4.768;2023-04-06T07:58:26;16.73;;;14.07;;
16314;SDS011;8266;52.150;4.768;2023-04-06T08:00:53;16.33;;;14.00;;
16314;SDS011;8266;52.150;4.768;2023-04-06T08:03:22;19.15;;;15.75;;
16314;SDS011;8266;52.150;4.768;2023-04-06T08:05:51;24.02;;;14.63;;
16314;SDS011;8266;52.150;4.768;2023-04-06T08:08:18;18.73;;;14.52;;
16314;SDS011;8266;52.150;4.768;2023-04-06T08:10:46;17.63;;;14.52;;
16314;SDS011;8266;52.150;4.768;2023-04-06T08:13:14;19.45;;;14.82;;
16314;SDS011;8266;52.150;4.768;2023-04-06T08:15:42;18.13;;;14.57;;
16314;SDS011;8266;52.150;4.768;2023-04-06T08:18:09;16.02;;;13.80;;
16314;SDS011;8266;52.150;4.768;2023-04-06T08:20:37;17.33;;;15.52;;
16314;SDS011;8266;52.150;4.768;2023-04-06T08:23:04;16.95;;;14.30;;
16314;SDS011;8266;52.150;4.768;2023-04-06T08:25:34;18.50;;;14.77;;
16314;SDS011;8266;52.150;4.768;2023-04-06T08:28:01;18.73;;;14.77;;
16314;SDS011;8266;52.150;4.768;2023-04-06T08:30:29;19.63;;;15.30;;
16314;SDS011;8266;52.150;4.768;2023-04-06T08:32:58;19.33;;;15.93;;
16314;SDS011;8266;52.150;4.768;2023-04-06T08:35:25;18.85;;;15.85;;
16314;SDS011;8266;52.150;4.768;2023-04-06T08:37:52;18.08;;;15.70;;
16314;SDS011;8266;52.150;4.768;2023-04-06T08:40:22;19.13;;;14.77;;
16314;SDS011;8266;52.150;4.768;2023-04-06T08:42:50;16.63;;;14.65;;
16314;SDS011;8266;52.150;4.768;2023-04-06T08:45:20;20.58;;;15.55;;
16314;SDS011;8266;52.150;4.768;2023-04-06T08:47:48;19.83;;;16.23;;
16314;SDS011;8266;52.150;4.768;2023-04-06T08:50:17;20.67;;;17.08;;
16314;SDS011;8266;52.150;4.768;2023-04-06T08:52:47;19.05;;;14.38;;
16314;SDS011;8266;52.150;4.768;2023-04-06T08:55:15;21.40;;;15.73;;
16314;SDS011;8266;52.150;4.768;2023-04-06T08:57:43;17.30;;;14.38;;
16314;SDS011;8266;52.150;4.768;2023-04-06T09:00:12;19.90;;;16.70;;
16314;SDS011;8266;52.150;4.768;2023-04-06T09:02:42;18.80;;;15.23;;
16314;SDS011;8266;52.150;4.768;2023-04-06T09:05:11;17.90;;;15.27;;
16314;SDS011;8266;52.150;4.768;2023-04-06T09:07:40;17.17;;;14.43;;
16314;SDS011;8266;52.150;4.768;2023-04-06T09:10:08;20.95;;;14.38;;
16314;SDS011;8266;52.150;4.768;2023-04-06T09:12:35;17.95;;;15.07;;
16314;SDS011;8266;52.150;4.768;2023-04-06T09:15:03;18.00;;;14.45;;
16314;SDS011;8266;52.150;4.768;2023-04-06T09:17:31;21.63;;;15.13;;
16314;SDS011;8266;52.150;4.768;2023-04-06T09:19:59;21.02;;;15.35;;
16314;SDS011;8266;52.150;4.768;2023-04-06T09:22:34;17.92;;;13.70;;
16314;SDS011;8266;52.150;4.768;2023-04-06T09:25:04;16.88;;;13.07;;
16314;SDS011;8266;52.150;4.768;2023-04-06T09:27:33;17.17;;;13.57;;
16314;SDS011;8266;52.150;4.768;2023-04-06T09:30:03;15.88;;;12.73;;
16314;SDS011;8266;52.150;4.768;2023-04-06T09:32:43;17.58;;;13.73;;
16314;SDS011;8266;52.150;4.768;2023-04-06T09:35:12;19.65;;;14.40;;
16314;SDS011;8266;52.150;4.768;2023-04-06T09:37:39;15.32;;;12.75;;
16314;SDS011;8266;52.150;4.768;2023-04-06T09:40:08;18.85;;;13.30;;
16314;SDS011;8266;52.150;4.768;2023-04-06T09:42:36;19.65;;;13.88;;
16314;SDS011;8266;52.150;4.768;2023-04-06T09:45:04;20.90;;;13.38;;
16314;SDS011;8266;52.150;4.768;2023-04-06T09:47:31;20.25;;;13.63;;
16314;SDS011;8266;52.150;4.768;2023-04-06T09:49:59;19.90;;;12.85;;
16314;SDS011;8266;52.150;4.768;2023-04-06T09:52:27;11.60;;;9.25;;
16314;SDS011;8266;52.150;4.768;2023-04-06T09:54:59;9.48;;;7.75;;
16314;SDS011;8266;52.150;4.768;2023-04-06T09:57:32;12.25;;;7.55;;
16314;SDS011;8266;52.150;4.768;2023-04-06T10:00:06;10.52;;;6.95;;
16314;SDS011;8266;52.150;4.768;2023-04-06T10:02:39;8.68;;;6.88;;
16314;SDS011;8266;52.150;4.768;2023-04-06T10:05:15;12.02;;;7.97;;
16314;SDS011;8266;52.150;4.768;2023-04-06T10:07:47;7.70;;;5.93;;
16314;SDS011;8266;52.150;4.768;2023-04-06T10:10:17;9.35;;;6.47;;
16314;SDS011;8266;52.150;4.768;2023-04-06T10:12:46;7.30;;;6.25;;
16314;SDS011;8266;52.150;4.768;2023-04-06T10:15:17;7.13;;;5.80;;
16314;SDS011;8266;52.150;4.768;2023-04-06T10:17:44;6.63;;;5.75;;
16314;SDS011;8266;52.150;4.768;2023-04-06T10:20:13;7.57;;;5.30;;
16314;SDS011;8266;52.150;4.768;2023-04-06T10:22:49;6.65;;;4.97;;
16314;SDS011;8266;52.150;4.768;2023-04-06T10:25:28;5.25;;;4.60;;
16314;SDS011;8266;52.150;4.768;2023-04-06T10:28:00;4.80;;;4.40;;
16314;SDS011;8266;52.150;4.768;2023-04-06T10:30:28;6.15;;;4.38;;
16314;SDS011;8266;52.150;4.768;2023-04-06T10:32:57;5.80;;;4.70;;
16314;SDS011;8266;52.150;4.768;2023-04-06T10:35:24;4.90;;;4.40;;
16314;SDS011;8266;52.150;4.768;2023-04-06T10:38:03;4.88;;;4.40;;
16314;SDS011;8266;52.150;4.768;2023-04-06T10:40:31;5.00;;;4.50;;
16314;SDS011;8266;52.150;4.768;2023-04-06T10:43:08;4.93;;;4.18;;
16314;SDS011;8266;52.150;4.768;2023-04-06T10:45:36;5.05;;;4.55;;
16314;SDS011;8266;52.150;4.768;2023-04-06T10:48:16;5.53;;;4.35;;
16314;SDS011;8266;52.150;4.768;2023-04-06T10:50:44;4.88;;;4.00;;
16314;SDS011;8266;52.150;4.768;2023-04-06T10:53:20;6.38;;;3.97;;
16314;SDS011;8266;52.150;4.768;2023-04-06T10:55:49;6.53;;;4.80;;
16314;SDS011;8266;52.150;4.768;2023-04-06T10:58:17;4.63;;;4.22;;
16314;SDS011;8266;52.150;4.768;2023-04-06T11:00:45;5.53;;;4.75;;
16314;SDS011;8266;52.150;4.768;2023-04-06T11:03:13;5.78;;;5.25;;
16314;SDS011;8266;52.150;4.768;2023-04-06T11:05:43;5.63;;;4.63;;
16314;SDS011;8266;52.150;4.768;2023-04-06T11:08:21;5.85;;;4.68;;
16314;SDS011;8266;52.150;4.768;2023-04-06T11:10:51;6.22;;;4.80;;
16314;SDS011;8266;52.150;4.768;2023-04-06T11:13:20;5.95;;;5.38;;
16314;SDS011;8266;52.150;4.768;2023-04-06T11:15:47;6.30;;;5.70;;
16314;SDS011;8266;52.150;4.768;2023-04-06T11:18:16;6.50;;;5.70;;
16314;SDS011;8266;52.150;4.768;2023-04-06T11:20:47;5.63;;;5.13;;
16314;SDS011;8266;52.150;4.768;2023-04-06T11:23:21;5.53;;;5.03;;
16314;SDS011;8266;52.150;4.768;2023-04-06T11:25:50;6.45;;;5.22;;
16314;SDS011;8266;52.150;4.768;2023-04-06T11:28:21;6.15;;;5.25;;
16314;SDS011;8266;52.150;4.768;2023-04-06T11:30:52;7.88;;;6.65;;
16314;SDS011;8266;52.150;4.768;2023-04-06T11:33:21;6.88;;;6.18;;
16314;SDS011;8266;52.150;4.768;2023-04-06T11:35:48;6.10;;;5.50;;
16314;SDS011;8266;52.150;4.768;2023-04-06T11:38:17;7.53;;;5.97;;
16314;SDS011;8266;52.150;4.768;2023-04-06T11:40:45;6.82;;;5.88;;
16314;SDS011;8266;52.150;4.768;2023-04-06T11:43:13;8.43;;;6.53;;
16314;SDS011;8266;52.150;4.768;2023-04-06T11:45:42;6.53;;;5.80;;
16314;SDS011;8266;52.150;4.768;2023-04-06T11:48:17;7.28;;;6.15;;
16314;SDS011;8266;52.150;4.768;2023-04-06T11:50:47;7.47;;;6.78;;
16314;SDS011;8266;52.150;4.768;2023-04-06T11:53:14;6.68;;;6.03;;
16314;SDS011;8266;52.150;4.768;2023-04-06T11:55:42;7.22;;;6.53;;
16314;SDS011;8266;52.150;4.768;2023-04-06T11:58:11;7.03;;;6.20;;
16314;SDS011;8266;52.150;4.768;2023-04-06T12:00:39;7.72;;;6.93;;
16314;SDS011;8266;52.150;4.768;2023-04-06T12:03:11;6.72;;;6.05;;
16314;SDS011;8266;52.150;4.768;2023-04-06T12:05:42;6.45;;;5.18;;
16314;SDS011;8266;52.150;4.768;2023-04-06T12:08:10;9.20;;;5.78;;
16314;SDS011;8266;52.150;4.768;2023-04-06T12:10:37;6.68;;;6.07;;
16314;SDS011;8266;52.150;4.768;2023-04-06T12:13:04;6.53;;;5.93;;
16314;SDS011;8266;52.150;4.768;2023-04-06T12:15:32;6.45;;;5.82;;
16314;SDS011;8266;52.150;4.768;2023-04-06T12:17:59;7.00;;;6.35;;
16314;SDS011;8266;52.150;4.768;2023-04-06T12:20:28;6.13;;;5.43;;
16314;SDS011;8266;52.150;4.768;2023-04-06T12:22:55;7.53;;;6.53;;
16314;SDS011;8266;52.150;4.768;2023-04-06T12:25:22;6.40;;;5.72;;
16314;SDS011;8266;52.150;4.768;2023-04-06T12:27:49;6.57;;;5.97;;
16314;SDS011;8266;52.150;4.768;2023-04-06T12:30:17;7.30;;;6.38;;
16314;SDS011;8266;52.150;4.768;2023-04-06T12:32:44;8.00;;;6.28;;
16314;SDS011;8266;52.150;4.768;2023-04-06T12:35:11;7.95;;;6.75;;
16314;SDS011;8266;52.150;4.768;2023-04-06T12:37:42;7.78;;;6.97;;
16314;SDS011;8266;52.150;4.768;2023-04-06T12:40:11;7.90;;;7.07;;
16314;SDS011;8266;52.150;4.768;2023-04-06T12:42:40;8.10;;;6.95;;
16314;SDS011;8266;52.150;4.768;2023-04-06T12:45:07;8.40;;;7.60;;
16314;SDS011;8266;52.150;4.768;2023-04-06T12:47:35;9.45;;;7.05;;
16314;SDS011;8266;52.150;4.768;2023-04-06T12:50:03;7.68;;;6.88;;
16314;SDS011;8266;52.150;4.768;2023-04-06T12:52:31;7.85;;;6.90;;
16314;SDS011;8266;52.150;4.768;2023-04-06T12:55:01;8.27;;;6.88;;
16314;SDS011;8266;52.150;4.768;2023-04-06T12:57:30;8.05;;;7.20;;
16314;SDS011;8266;52.150;4.768;2023-04-06T12:59:57;7.53;;;5.93;;
16314;SDS011;8266;52.150;4.768;2023-04-06T13:02:26;7.65;;;6.22;;
16314;SDS011;8266;52.150;4.768;2023-04-06T13:04:53;7.43;;;6.63;;
16314;SDS011;8266;52.150;4.768;2023-04-06T13:07:20;8.00;;;6.80;;
16314;SDS011;8266;52.150;4.768;2023-04-06T13:09:48;8.77;;;7.88;;
16314;SDS011;8266;52.150;4.768;2023-04-06T13:12:18;8.32;;;7.05;;
16314;SDS011;8266;52.150;4.768;2023-04-06T13:14:45;8.52;;;7.60;;
16314;SDS011;8266;52.150;4.768;2023-04-06T13:17:16;7.28;;;6.57;;
16314;SDS011;8266;52.150;4.768;2023-04-06T13:19:43;8.13;;;7.03;;
16314;SDS011;8266;52.150;4.768;2023-04-06T13:22:11;8.45;;;7.43;;
16314;SDS011;8266;52.150;4.768;2023-04-06T13:24:41;7.40;;;6.70;;
16314;SDS011;8266;52.150;4.768;2023-04-06T13:27:08;8.20;;;7.38;;
16314;SDS011;8266;52.150;4.768;2023-04-06T13:29:38;7.75;;;6.75;;
16314;SDS011;8266;52.150;4.768;2023-04-06T13:32:05;8.10;;;7.18;;
16314;SDS011;8266;52.150;4.768;2023-04-06T13:34:34;7.72;;;6.95;;
16314;SDS011;8266;52.150;4.768;2023-04-06T13:37:02;8.52;;;7.72;;
16314;SDS011;8266;52.150;4.768;2023-04-06T13:39:29;8.40;;;7.60;;
16314;SDS011;8266;52.150;4.768;2023-04-06T13:41:57;8.30;;;7.50;;
16314;SDS011;8266;52.150;4.768;2023-04-06T13:44:25;8.15;;;7.35;;
16314;SDS011;8266;52.150;4.768;2023-04-06T13:46:53;8.38;;;7.53;;
16314;SDS011;8266;52.150;4.768;2023-04-06T13:49:23;8.85;;;7.95;;
16314;SDS011;8266;52.150;4.768;2023-04-06T13:51:50;9.35;;;8.20;;
16314;SDS011;8266;52.150;4.768;2023-04-06T13:54:17;9.75;;;8.75;;
16314;SDS011;8266;52.150;4.768;2023-04-06T13:56:44;9.20;;;8.30;;
16314;SDS011;8266;52.150;4.768;2023-04-06T13:59:12;8.48;;;7.68;;
16314;SDS011;8266;52.150;4.768;2023-04-06T14:01:39;8.38;;;7.57;;
16314;SDS011;8266;52.150;4.768;2023-04-06T14:04:08;9.02;;;8.13;;
16314;SDS011;8266;52.150;4.768;2023-04-06T14:06:35;8.85;;;8.02;;
16314;SDS011;8266;52.150;4.768;2023-04-06T14:09:03;9.18;;;7.15;;
16314;SDS011;8266;52.150;4.768;2023-04-06T14:11:31;7.75;;;6.97;;
16314;SDS011;8266;52.150;4.768;2023-04-06T14:13:59;8.15;;;7.35;;
16314;SDS011;8266;52.150;4.768;2023-04-06T14:16:26;8.00;;;6.70;;
16314;SDS011;8266;52.150;4.768;2023-04-06T14:18:53;8.10;;;7.03;;
16314;SDS011;8266;52.150;4.768;2023-04-06T14:21:21;6.82;;;6.15;;
16314;SDS011;8266;52.150;4.768;2023-04-06T14:23:48;7.38;;;6.57;;
16314;SDS011;8266;52.150;4.768;2023-04-06T14:26:15;9.32;;;6.47;;
16314;SDS011;8266;52.150;4.768;2023-04-06T14:28:43;7.53;;;6.82;;
16314;SDS011;8266;52.150;4.768;2023-04-06T14:31:11;7.82;;;7.13;;
16314;SDS011;8266;52.150;4.768;2023-04-06T14:33:40;8.02;;;7.22;;
16314;SDS011;8266;52.150;4.768;2023-04-06T14:36:08;7.00;;;6.40;;
16314;SDS011;8266;52.150;4.768;2023-04-06T14:38:37;7.63;;;6.93;;
16314;SDS011;8266;52.150;4.768;2023-04-06T14:41:06;7.85;;;6.95;;
16314;SDS011;8266;52.150;4.768;2023-04-06T14:43:34;7.68;;;6.97;;
16314;SDS011;8266;52.150;4.768;2023-04-06T14:46:01;8.10;;;7.28;;
16314;SDS011;8266;52.150;4.768;2023-04-06T14:48:28;8.00;;;7.30;;
16314;SDS011;8266;52.150;4.768;2023-04-06T14:50:56;8.48;;;7.30;;